createdAt,value
2019-05-01T00:01:34.346Z,48.75
2019-05-01T00:04:23.037Z,49.23
2019-05-01T00:06:56.501Z,51.58
2019-05-01T00:09:28.466Z,51.40
2019-05-01T00:12:00.681Z,49.67
2019-05-01T00:14:33.830Z,52.33
2019-05-01T00:17:05.789Z,52.50
2019-05-01T00:19:37.449Z,51.75
2019-05-01T00:22:09.712Z,50.65
2019-05-01T00:24:41.268Z,50.85
2019-05-01T00:27:13.042Z,51.37
2019-05-01T00:29:44.985Z,49.95
2019-05-01T00:32:17.062Z,45.28
2019-05-01T00:34:48.674Z,51.28
2019-05-01T00:37:20.792Z,49.48
2019-05-01T00:39:52.547Z,51.15
2019-05-01T00:42:24.528Z,49.93
2019-05-01T00:44:56.078Z,50.38
2019-05-01T00:47:28.126Z,47.13
2019-05-01T00:50:00.176Z,49.40
2019-05-01T00:55:20.521Z,44.23
2019-05-01T00:58:06.374Z,41.90
2019-05-01T01:00:43.122Z,43.95
2019-05-01T01:03:13.959Z,42.43
2019-05-01T01:05:45.452Z,42.00
2019-05-01T01:08:17.813Z,43.73
2019-05-01T01:10:50.490Z,39.90
2019-05-01T01:13:22.261Z,47.62
2019-05-01T01:15:53.899Z,46.40
2019-05-01T01:18:25.692Z,48.83
2019-05-01T01:20:57.518Z,45.67
2019-05-01T01:23:29.665Z,44.83
2019-05-01T01:28:32.804Z,41.42
2019-05-01T01:31:04.879Z,41.73
2019-05-01T01:33:36.860Z,42.13
2019-05-01T01:36:09.765Z,44.23
2019-05-01T01:38:41.804Z,44.05
2019-05-01T01:41:13.769Z,45.65
2019-05-01T01:43:56.432Z,42.60
2019-05-01T01:46:29.854Z,41.98
2019-05-01T01:49:02.625Z,43.75
2019-05-01T01:51:34.407Z,45.98
2019-05-01T01:54:06.293Z,46.00
2019-05-01T01:56:38.051Z,41.75
2019-05-01T01:59:10.370Z,35.92
2019-05-01T02:02:00.167Z,42.20
2019-05-01T02:04:51.720Z,37.13
2019-05-01T02:07:23.496Z,42.25
2019-05-01T02:09:55.172Z,42.73
2019-05-01T02:12:27.450Z,44.67
2019-05-01T02:14:59.339Z,44.98
2019-05-01T02:17:30.974Z,44.15
2019-05-01T02:20:02.911Z,45.63
2019-05-01T02:22:34.514Z,43.52
2019-05-01T02:25:08.255Z,50.28
2019-05-01T02:27:50.412Z,45.90
2019-05-01T02:30:23.963Z,49.73
2019-05-01T02:32:56.847Z,48.13
2019-05-01T02:35:30.468Z,47.83
2019-05-01T02:38:04.920Z,50.92
2019-05-01T02:40:45.324Z,51.70
2019-05-01T02:43:19.036Z,48.83
2019-05-01T02:45:53.490Z,51.45
2019-05-01T02:48:27.513Z,71.10
2019-05-01T02:51:02.100Z,57.95
2019-05-01T02:53:36.878Z,49.53
2019-05-01T02:56:15.441Z,55.75
2019-05-01T02:58:49.892Z,59.40
2019-05-01T03:01:22.946Z,87.90
2019-05-01T03:03:56.890Z,62.05
2019-05-01T03:06:30.406Z,59.38
2019-05-01T03:09:05.042Z,58.95
2019-05-01T03:11:40.107Z,95.12
2019-05-01T03:14:17.477Z,74.60
2019-05-01T03:16:52.272Z,77.87
2019-05-01T03:19:35.787Z,72.72
2019-05-01T03:22:15.175Z,62.27
2019-05-01T03:24:47.337Z,73.35
2019-05-01T03:29:50.416Z,62.60
2019-05-01T03:32:22.364Z,74.82
2019-05-01T03:34:54.649Z,77.35
2019-05-01T03:37:26.350Z,97.15
2019-05-01T03:39:58.089Z,73.67
2019-05-01T03:42:30.427Z,75.28
2019-05-01T03:45:02.732Z,66.60
2019-05-01T03:50:06.732Z,85.62
2019-05-01T03:52:38.454Z,67.00
2019-05-01T03:55:11.285Z,64.03
2019-05-01T03:57:43.395Z,58.00
2019-05-01T04:00:17.503Z,57.95
2019-05-01T04:02:50.899Z,72.37
2019-05-01T04:05:22.721Z,62.95
2019-05-01T04:07:54.857Z,75.28
2019-05-01T04:10:26.683Z,79.40
2019-05-01T04:12:58.500Z,75.97
2019-05-01T04:15:30.665Z,74.47
2019-05-01T04:18:04.633Z,68.33
2019-05-01T04:20:36.986Z,87.05
2019-05-01T04:23:08.883Z,75.67
2019-05-01T04:25:40.950Z,77.42
2019-05-01T04:28:31.066Z,63.15
2019-05-01T04:31:14.981Z,43.60
2019-05-01T04:33:54.400Z,78.57
2019-05-01T04:36:27.965Z,92.78
2019-05-01T04:39:01.012Z,69.45
2019-05-01T04:41:36.071Z,74.27
2019-05-01T04:44:07.715Z,80.42
2019-05-01T04:46:39.731Z,70.35
2019-05-01T04:49:11.842Z,64.05
2019-05-01T04:51:43.815Z,65.65
2019-05-01T04:54:15.891Z,67.10
2019-05-01T04:56:48.373Z,68.57
2019-05-01T04:59:20.850Z,65.08
2019-05-01T05:02:00.536Z,62.67
2019-05-01T05:04:33.722Z,62.65
2019-05-01T05:07:05.688Z,62.73
2019-05-01T05:09:47.646Z,58.38
2019-05-01T05:12:30.504Z,65.78
2019-05-01T05:17:34.505Z,55.33
2019-05-01T05:20:08.002Z,60.23
2019-05-01T05:22:40.059Z,56.15
2019-05-01T05:25:12.285Z,56.48
2019-05-01T05:27:45.789Z,57.67
2019-05-01T05:30:17.662Z,60.55
2019-05-01T05:32:52.104Z,54.00
2019-05-01T05:35:24.991Z,60.95
2019-05-01T05:38:00.393Z,54.88
2019-05-01T05:40:34.655Z,63.78
2019-05-01T05:43:06.858Z,59.98
2019-05-01T05:45:38.937Z,61.77
2019-05-01T05:49:21.264Z,55.58
2019-05-01T05:52:00.024Z,63.10
2019-05-01T05:54:38.822Z,64.27
2019-05-01T05:57:29.816Z,69.15
2019-05-01T06:00:13.557Z,53.33
2019-05-01T06:02:51.921Z,63.92
2019-05-01T06:05:43.354Z,65.55
2019-05-01T06:08:18.860Z,64.90
2019-05-01T06:10:53.700Z,68.20
2019-05-01T06:13:44.988Z,68.75
2019-05-01T06:16:29.439Z,66.80
2019-05-01T06:19:17.941Z,61.75
2019-05-01T06:22:12.127Z,59.75
2019-05-01T06:25:03.086Z,60.15
2019-05-01T06:27:35.789Z,57.38
2019-05-01T06:30:11.196Z,53.00
2019-05-01T06:32:42.750Z,57.58
2019-05-01T06:35:14.478Z,54.53
2019-05-01T06:37:56.048Z,54.45
2019-05-01T06:40:39.337Z,47.85
2019-05-01T06:43:20.187Z,49.13
2019-05-01T06:45:56.194Z,49.35
2019-05-01T06:48:29.746Z,49.05
2019-05-01T06:51:19.105Z,47.85
2019-05-01T06:53:52.800Z,47.27
2019-05-01T06:56:24.625Z,48.73
2019-05-01T06:58:56.883Z,44.75
2019-05-01T07:01:28.503Z,48.55
2019-05-01T07:04:04.076Z,46.90
2019-05-01T07:06:34.194Z,46.58
2019-05-01T07:09:11.801Z,45.35
2019-05-01T07:11:47.554Z,45.05
2019-05-01T07:14:17.591Z,45.40
2019-05-01T07:16:49.387Z,42.30
2019-05-01T07:19:23.819Z,40.98
2019-05-01T07:21:56.183Z,40.58
2019-05-01T07:24:29.161Z,36.42
2019-05-01T07:27:01.138Z,34.20
2019-05-01T07:29:34.655Z,32.98
2019-05-01T07:32:07.546Z,32.35
2019-05-01T07:34:39.209Z,28.75
2019-05-01T07:37:11.447Z,30.20
2019-05-01T07:39:44.921Z,28.38
2019-05-01T07:42:27.896Z,27.90
2019-05-01T07:47:39.942Z,26.57
2019-05-01T07:50:14.458Z,24.50
2019-05-01T07:52:47.612Z,24.98
2019-05-01T07:55:37.887Z,22.93
2019-05-01T07:58:16.118Z,22.07
2019-05-01T08:00:54.460Z,19.75
2019-05-01T08:03:25.953Z,19.43
2019-05-01T08:05:59.371Z,20.10
2019-05-01T08:08:31.033Z,19.87
2019-05-01T08:11:05.297Z,19.35
2019-05-01T08:13:36.665Z,22.37
2019-05-01T08:16:08.802Z,21.80
2019-05-01T08:21:26.198Z,22.13
2019-05-01T08:23:57.133Z,21.60
2019-05-01T08:26:29.332Z,24.55
2019-05-01T08:29:06.736Z,25.40
2019-05-01T08:31:44.148Z,24.63
2019-05-01T08:34:25.367Z,25.25
2019-05-01T08:36:58.086Z,28.05
2019-05-01T08:42:03.146Z,34.25
2019-05-01T08:44:36.978Z,34.25
2019-05-01T08:47:13.371Z,33.73
2019-05-01T08:49:49.715Z,34.00
2019-05-01T08:52:20.063Z,49.75
2019-05-01T08:54:51.575Z,52.15
2019-05-01T08:57:23.657Z,58.42
2019-05-01T08:59:55.701Z,64.55
2019-05-01T09:02:28.855Z,65.67
2019-05-01T09:05:02.885Z,63.40
2019-05-01T09:07:35.703Z,53.10
2019-05-01T09:10:09.295Z,47.03
2019-05-01T09:12:42.591Z,34.78
2019-05-01T09:15:14.969Z,34.95
2019-05-01T09:17:46.978Z,40.52
2019-05-01T09:20:18.703Z,35.58
2019-05-01T09:22:52.097Z,31.35
2019-05-01T09:25:25.326Z,33.48
2019-05-01T09:27:59.603Z,31.90
2019-05-01T09:30:33.591Z,29.27
2019-05-01T09:33:05.540Z,28.50
2019-05-01T09:35:40.496Z,26.00
2019-05-01T09:38:10.527Z,24.37
2019-05-01T09:40:42.429Z,31.55
2019-05-01T09:43:14.489Z,32.60
2019-05-01T09:45:46.660Z,36.68
2019-05-01T09:48:18.426Z,39.00
2019-05-01T09:51:00.873Z,37.98
2019-05-01T09:53:37.053Z,42.05
2019-05-01T09:56:13.322Z,43.92
2019-05-01T09:58:45.076Z,40.45
2019-05-01T10:01:16.919Z,29.42
2019-05-01T10:03:49.566Z,23.62
2019-05-01T10:06:22.113Z,15.43
2019-05-01T10:08:53.767Z,11.65
2019-05-01T10:11:25.387Z,8.80
2019-05-01T10:13:58.377Z,9.63
2019-05-01T10:16:31.050Z,9.23
2019-05-01T10:19:02.938Z,8.55
2019-05-01T10:21:34.451Z,8.03
2019-05-01T10:24:06.323Z,8.20
2019-05-01T10:26:39.487Z,27.67
2019-05-01T10:29:25.847Z,25.02
2019-05-01T10:32:03.030Z,17.45
2019-05-01T10:34:43.064Z,15.58
2019-05-01T10:37:15.726Z,11.43
2019-05-01T10:39:50.181Z,9.08
2019-05-01T10:42:20.714Z,8.85
2019-05-01T10:44:52.569Z,100.30
2019-05-01T10:47:24.779Z,8.10
2019-05-01T10:52:27.533Z,8.00
2019-05-01T10:54:59.665Z,8.10
2019-05-01T10:57:35.006Z,7.28
2019-05-01T11:00:09.707Z,8.80
2019-05-01T11:02:41.275Z,14.18
2019-05-01T11:05:12.976Z,12.25
2019-05-01T11:07:44.711Z,9.80
2019-05-01T11:10:17.592Z,10.30
2019-05-01T11:12:49.462Z,13.03
2019-05-01T11:15:21.281Z,10.82
2019-05-01T11:17:53.260Z,8.68
2019-05-01T11:20:25.343Z,9.58
2019-05-01T11:22:57.015Z,8.58
2019-05-01T11:25:29.776Z,7.12
2019-05-01T11:28:01.881Z,6.10
2019-05-01T11:30:34.582Z,5.97
2019-05-01T11:33:24.023Z,6.50
2019-05-01T11:36:08.988Z,13.13
2019-05-01T11:38:49.222Z,41.30
2019-05-01T11:41:25.529Z,17.45
2019-05-01T11:43:57.138Z,7.92
2019-05-01T11:46:29.034Z,6.87
2019-05-01T11:49:00.819Z,10.65
2019-05-01T11:51:32.745Z,10.30
2019-05-01T11:54:06.383Z,7.85
2019-05-01T11:56:38.245Z,5.55
2019-05-01T11:59:10.664Z,4.70
2019-05-01T12:01:42.531Z,4.70
2019-05-01T12:04:15.110Z,7.17
2019-05-01T12:06:46.938Z,9.20
2019-05-01T12:09:19.003Z,9.28
2019-05-01T12:11:52.314Z,8.40
2019-05-01T12:14:23.857Z,8.75
2019-05-01T12:16:57.303Z,9.15
2019-05-01T12:19:30.451Z,4.83
2019-05-01T12:22:02.126Z,5.90
2019-05-01T12:24:33.868Z,5.42
2019-05-01T12:27:05.697Z,5.22
2019-05-01T12:29:37.855Z,4.80
2019-05-01T12:32:09.772Z,6.65
2019-05-01T12:34:41.308Z,4.75
2019-05-01T12:37:17.372Z,5.97
2019-05-01T12:39:48.911Z,5.25
2019-05-01T12:42:22.218Z,5.83
2019-05-01T12:44:53.796Z,4.90
2019-05-01T12:47:28.096Z,3.92
2019-05-01T12:49:59.640Z,3.65
2019-05-01T12:52:33.027Z,5.33
2019-05-01T12:55:13.923Z,4.42
2019-05-01T12:57:45.788Z,5.50
2019-05-01T13:00:19.080Z,4.62
2019-05-01T13:02:50.824Z,5.42
2019-05-01T13:05:22.376Z,5.97
2019-05-01T13:07:54.444Z,6.83
2019-05-01T13:10:26.095Z,17.25
2019-05-01T13:12:57.963Z,5.03
2019-05-01T13:15:29.712Z,3.70
2019-05-01T13:18:01.236Z,5.15
2019-05-01T13:20:33.635Z,7.45
2019-05-01T13:25:37.768Z,10.28
2019-05-01T13:28:11.246Z,5.75
2019-05-01T13:30:44.599Z,6.03
2019-05-01T13:33:16.313Z,6.85
2019-05-01T13:35:48.190Z,9.38
2019-05-01T13:38:19.723Z,7.72
2019-05-01T13:40:52.050Z,6.20
2019-05-01T13:43:23.748Z,8.75
2019-05-01T13:45:55.638Z,8.23
2019-05-01T13:48:27.276Z,5.25
2019-05-01T13:50:59.392Z,4.58
2019-05-01T13:53:31.594Z,3.22
2019-05-01T13:56:03.550Z,3.00
2019-05-01T13:58:35.231Z,2.83
2019-05-01T14:01:07.267Z,2.90
2019-05-01T14:03:38.676Z,4.08
2019-05-01T14:06:11.716Z,3.30
2019-05-01T14:08:43.391Z,4.45
2019-05-01T14:11:15.158Z,4.17
2019-05-01T14:13:46.896Z,5.30
2019-05-01T14:16:18.803Z,5.37
2019-05-01T14:18:50.868Z,4.30
2019-05-01T14:24:00.518Z,3.70
2019-05-01T14:26:33.293Z,4.22
2019-05-01T14:29:05.477Z,4.70
2019-05-01T14:31:36.899Z,4.10
2019-05-01T14:34:08.813Z,147.68
2019-05-01T14:36:40.800Z,3.45
2019-05-01T14:39:12.722Z,2.85
2019-05-01T14:41:44.250Z,2.30
2019-05-01T14:44:16.202Z,2.60
2019-05-01T14:46:47.674Z,2.40
2019-05-01T14:49:19.493Z,2.15
2019-05-01T14:51:51.405Z,1.62
2019-05-01T14:54:23.340Z,1.75
2019-05-01T14:56:54.865Z,1.77
2019-05-01T14:59:26.544Z,2.23
2019-05-01T15:01:58.177Z,8.43
2019-05-01T15:04:30.418Z,2.55
2019-05-01T15:07:02.217Z,2.00
2019-05-01T15:09:33.870Z,1.87
2019-05-01T15:12:07.288Z,1.52
2019-05-01T15:14:43.328Z,1.25
2019-05-01T15:17:22.390Z,1.30
2019-05-01T15:20:04.776Z,1.60
2019-05-01T15:22:37.352Z,1.72
2019-05-01T15:25:09.197Z,1.60
2019-05-01T15:27:41.152Z,1.30
2019-05-01T15:30:15.560Z,1.70
2019-05-01T15:32:47.428Z,1.47
2019-05-01T15:35:19.146Z,1.70
2019-05-01T15:37:56.878Z,2.05
2019-05-01T15:40:38.250Z,1.90
2019-05-01T15:43:26.918Z,1.82
2019-05-01T15:45:59.095Z,1.70
2019-05-01T15:48:30.952Z,1.57
2019-05-01T15:51:02.503Z,1.50
2019-05-01T15:53:35.419Z,2.10
2019-05-01T15:56:07.457Z,1.87
2019-05-01T15:58:39.571Z,2.15
2019-05-01T16:01:11.382Z,9.55
2019-05-01T16:03:43.009Z,6.30
2019-05-01T16:06:14.791Z,1.98
2019-05-01T16:08:46.477Z,3.43
2019-05-01T16:11:28.447Z,1.80
2019-05-01T16:14:00.622Z,2.20
2019-05-01T16:16:32.120Z,2.10
2019-05-01T16:19:03.757Z,2.12
2019-05-01T16:21:35.284Z,2.72
2019-05-01T16:24:06.937Z,2.47
2019-05-01T16:26:38.682Z,3.00
2019-05-01T16:29:10.863Z,2.50
2019-05-01T16:31:42.366Z,2.40
2019-05-01T16:34:14.262Z,2.85
2019-05-01T16:36:45.830Z,2.60
2019-05-01T16:39:19.209Z,2.65
2019-05-01T16:41:50.689Z,2.40
2019-05-01T16:44:22.657Z,2.98
2019-05-01T16:46:54.174Z,2.52
2019-05-01T16:49:26.142Z,2.52
2019-05-01T16:51:57.748Z,2.85
2019-05-01T16:54:29.974Z,2.80
2019-05-01T16:57:01.739Z,23.98
2019-05-01T16:59:34.080Z,3.22
2019-05-01T17:02:12.811Z,4.97
2019-05-01T17:04:52.119Z,3.35
2019-05-01T17:07:25.341Z,3.90
2019-05-01T17:10:04.175Z,3.27
2019-05-01T17:12:49.598Z,3.87
2019-05-01T17:15:22.832Z,3.22
2019-05-01T17:17:54.595Z,3.85
2019-05-01T17:20:26.506Z,2.95
2019-05-01T17:22:58.461Z,3.40
2019-05-01T17:25:31.409Z,2.95
2019-05-01T17:28:08.151Z,3.30
2019-05-01T17:30:40.009Z,3.42
2019-05-01T17:33:19.495Z,3.58
2019-05-01T17:35:44.992Z,4.25
2019-05-01T17:38:16.683Z,3.60
2019-05-01T17:40:52.241Z,4.15
2019-05-01T17:43:22.303Z,4.40
2019-05-01T17:45:54.309Z,3.90
2019-05-01T17:48:28.968Z,3.47
2019-05-01T17:50:59.982Z,3.72
2019-05-01T17:53:32.019Z,3.40
2019-05-01T17:56:03.597Z,3.30
2019-05-01T17:58:35.556Z,2.85
2019-05-01T18:01:09.073Z,3.35
2019-05-01T18:03:51.329Z,3.35
2019-05-01T18:06:24.332Z,2.95
2019-05-01T18:09:02.894Z,2.60
2019-05-01T18:11:29.473Z,2.83
2019-05-01T18:14:01.746Z,2.60
2019-05-01T18:16:33.292Z,85.07
2019-05-01T18:19:09.750Z,3.10
2019-05-01T18:21:41.836Z,2.77
2019-05-01T18:24:18.946Z,3.47
2019-05-01T18:26:52.484Z,2.62
2019-05-01T18:29:28.454Z,1.95
2019-05-01T18:32:02.977Z,2.12
2019-05-01T18:34:33.888Z,6.10
2019-05-01T18:37:17.247Z,2.47
2019-05-01T18:39:48.937Z,2.47
2019-05-01T18:42:20.664Z,2.43
2019-05-01T18:44:52.440Z,2.30
2019-05-01T18:47:24.288Z,6.12
2019-05-01T18:49:56.040Z,1.90
2019-05-01T18:52:27.902Z,2.10
2019-05-01T18:54:59.662Z,3.08
2019-05-01T18:57:31.477Z,2.40
2019-05-01T19:00:03.086Z,1.80
2019-05-01T19:02:35.377Z,2.50
2019-05-01T19:05:08.775Z,2.33
2019-05-01T19:07:41.529Z,3.37
2019-05-01T19:10:13.279Z,2.37
2019-05-01T19:12:45.896Z,2.10
2019-05-01T19:15:21.129Z,2.15
2019-05-01T19:17:56.823Z,2.20
2019-05-01T19:20:30.692Z,2.35
2019-05-01T19:23:05.186Z,3.08
2019-05-01T19:25:38.963Z,4.00
2019-05-01T19:28:13.880Z,3.62
2019-05-01T19:30:47.599Z,2.58
2019-05-01T19:33:21.258Z,2.60
2019-05-01T19:36:02.683Z,2.40
2019-05-01T19:38:36.943Z,2.62
2019-05-01T19:41:14.050Z,2.30
2019-05-01T19:43:46.559Z,2.50
2019-05-01T19:46:20.335Z,2.55
2019-05-01T19:48:55.480Z,2.80
2019-05-01T19:51:29.294Z,2.30
2019-05-01T19:54:02.848Z,3.00
2019-05-01T19:56:36.479Z,3.42
2019-05-01T19:59:09.978Z,2.98
2019-05-01T20:01:49.120Z,3.92
2019-05-01T20:04:19.801Z,3.45
2019-05-01T20:06:55.479Z,3.12
2019-05-01T20:09:29.250Z,3.42
2019-05-01T20:12:03.508Z,3.08
2019-05-01T20:14:37.298Z,3.20
2019-05-01T20:17:11.879Z,2.85
2019-05-01T20:19:45.946Z,3.10
2019-05-01T20:22:19.909Z,3.80
2019-05-01T20:24:53.664Z,3.50
2019-05-01T20:27:27.919Z,3.10
2019-05-01T20:30:01.230Z,3.10
2019-05-01T20:32:34.890Z,3.10
2019-05-01T20:35:08.236Z,2.75
2019-05-01T20:37:41.735Z,2.83
2019-05-01T20:40:15.422Z,2.85
2019-05-01T20:42:48.057Z,2.87
2019-05-01T20:45:19.963Z,2.92
2019-05-01T20:47:54.295Z,3.30
2019-05-01T20:50:25.900Z,3.15
2019-05-01T20:52:58.122Z,3.02
2019-05-01T20:55:29.801Z,2.75
2019-05-01T20:58:20.807Z,2.65
2019-05-01T21:00:54.840Z,3.12
2019-05-01T21:03:26.385Z,3.25
2019-05-01T21:06:07.765Z,3.55
2019-05-01T21:08:40.713Z,2.77
2019-05-01T21:11:14.400Z,3.12
2019-05-01T21:13:46.162Z,3.05
2019-05-01T21:16:17.999Z,3.35
2019-05-01T21:18:49.548Z,3.42
2019-05-01T21:21:24.074Z,3.42
2019-05-01T21:23:56.754Z,3.83
2019-05-01T21:26:29.049Z,3.12
2019-05-01T21:29:00.623Z,3.22
2019-05-01T21:31:34.133Z,3.35
2019-05-01T21:34:05.907Z,2.75
2019-05-01T21:36:37.577Z,3.27
2019-05-01T21:39:09.066Z,2.87
2019-05-01T21:41:43.166Z,3.12
2019-05-01T21:44:14.553Z,2.70
2019-05-01T21:46:46.326Z,2.40
2019-05-01T21:49:17.936Z,2.47
2019-05-01T21:51:49.839Z,2.55
2019-05-01T21:54:22.030Z,2.75
2019-05-01T21:56:54.086Z,2.83
2019-05-01T21:59:26.539Z,2.40
2019-05-01T22:01:58.860Z,2.85
2019-05-01T22:04:32.048Z,2.60
2019-05-01T22:07:03.927Z,2.92
2019-05-01T22:09:36.760Z,3.05
2019-05-01T22:12:13.124Z,2.77
2019-05-01T22:14:46.474Z,2.80
2019-05-01T22:17:22.612Z,3.00
2019-05-01T22:19:54.048Z,3.20
2019-05-01T22:22:38.678Z,3.05
2019-05-01T22:25:22.002Z,3.02
2019-05-01T22:27:55.684Z,3.30
2019-05-01T22:30:31.345Z,3.25
2019-05-01T22:33:03.089Z,3.62
2019-05-01T22:35:40.237Z,3.25
2019-05-01T22:38:13.861Z,3.70
2019-05-01T22:41:05.863Z,3.72
2019-05-01T22:43:30.285Z,3.40
2019-05-01T22:51:07.473Z,3.58
2019-05-01T22:53:39.081Z,3.47
2019-05-01T22:56:10.709Z,3.60
2019-05-01T22:58:42.503Z,3.75
2019-05-01T23:01:18.214Z,3.45
2019-05-01T23:03:52.019Z,3.65
2019-05-01T23:06:23.648Z,4.17
2019-05-01T23:08:55.570Z,3.95
2019-05-01T23:11:28.984Z,3.80
2019-05-01T23:14:00.789Z,3.52
2019-05-01T23:16:34.671Z,4.37
2019-05-01T23:19:06.403Z,3.62
2019-05-01T23:21:38.440Z,4.00
2019-05-01T23:24:10.155Z,4.47
2019-05-01T23:26:41.644Z,4.10
2019-05-01T23:29:13.530Z,3.60
2019-05-01T23:31:45.055Z,4.17
2019-05-01T23:34:21.047Z,4.53
2019-05-01T23:36:49.984Z,4.55
2019-05-01T23:39:22.133Z,4.25
2019-05-01T23:41:54.135Z,4.50
2019-05-01T23:44:25.682Z,4.40
2019-05-01T23:46:57.762Z,4.55
2019-05-01T23:49:29.509Z,4.42
2019-05-01T23:52:03.354Z,4.50
2019-05-01T23:54:34.573Z,5.28
2019-05-01T23:57:06.361Z,5.35
2019-05-01T23:59:38.073Z,5.12
